createdAt,value
2023-05-10T00:01:34.201Z,92.30
2023-05-10T00:04:00.994Z,92.30
2023-05-10T00:06:27.823Z,92.30
2023-05-10T00:08:54.596Z,92.30
2023-05-10T00:11:23.025Z,92.30
2023-05-10T00:13:50.362Z,92.30
2023-05-10T00:16:17.138Z,92.30
2023-05-10T00:18:43.936Z,92.30
2023-05-10T00:21:10.699Z,92.30
2023-05-10T00:23:37.508Z,92.40
2023-05-10T00:26:04.755Z,92.40
2023-05-10T00:28:31.580Z,92.30
2023-05-10T00:30:58.348Z,92.40
2023-05-10T00:33:25.132Z,92.40
2023-05-10T00:35:51.949Z,92.40
2023-05-10T00:38:18.802Z,92.40
2023-05-10T00:40:45.586Z,92.40
2023-05-10T00:43:12.373Z,92.40
2023-05-10T00:45:41.074Z,92.40
2023-05-10T00:48:08.106Z,92.40
2023-05-10T00:50:35.061Z,92.40
2023-05-10T00:53:03.277Z,92.40
2023-05-10T00:55:30.184Z,92.40
2023-05-10T00:57:57.040Z,92.40
2023-05-10T01:00:23.885Z,92.40
2023-05-10T01:02:51.231Z,92.40
2023-05-10T01:05:18.256Z,92.40
2023-05-10T01:07:45.054Z,92.40
2023-05-10T01:13:57.419Z,92.40
2023-05-10T01:16:25.474Z,92.30
2023-05-10T01:18:53.052Z,92.30
2023-05-10T01:21:45.596Z,92.20
2023-05-10T01:24:36.977Z,92.20
2023-05-10T01:27:37.423Z,92.20
2023-05-10T01:30:15.981Z,92.20
2023-05-10T01:33:04.158Z,92.20
2023-05-10T01:36:09.403Z,92.20
2023-05-10T01:38:54.042Z,92.20
2023-05-10T01:41:28.261Z,92.20
2023-05-10T01:44:27.026Z,92.20
2023-05-10T01:47:07.329Z,92.20
2023-05-10T01:49:48.574Z,92.20
2023-05-10T01:52:20.243Z,92.20
2023-05-10T01:55:00.330Z,92.20
2023-05-10T01:57:28.699Z,92.20
2023-05-10T01:59:57.328Z,92.10
2023-05-10T02:02:27.078Z,92.00
2023-05-10T02:04:56.279Z,92.00
2023-05-10T02:07:24.847Z,92.00
2023-05-10T02:09:52.382Z,92.00
2023-05-10T02:12:19.875Z,92.00
2023-05-10T02:14:47.837Z,92.00
2023-05-10T02:17:15.306Z,91.90
2023-05-10T02:19:44.235Z,91.90
2023-05-10T02:22:12.426Z,91.90
2023-05-10T02:24:40.570Z,92.00
2023-05-10T02:27:08.850Z,92.00
2023-05-10T02:29:37.421Z,92.00
2023-05-10T02:32:05.201Z,91.90
2023-05-10T02:34:33.149Z,91.90
2023-05-10T02:37:01.938Z,91.90
2023-05-10T02:39:30.639Z,91.80
2023-05-10T02:41:58.591Z,91.80
2023-05-10T02:44:28.944Z,91.80
2023-05-10T02:46:57.074Z,91.80
2023-05-10T02:49:23.936Z,91.70
2023-05-10T02:51:56.415Z,91.70
2023-05-10T02:54:29.696Z,91.70
2023-05-10T02:57:00.410Z,91.70
2023-05-10T02:59:27.567Z,91.70
2023-05-10T03:01:54.640Z,91.70
2023-05-10T03:04:21.570Z,91.70
2023-05-10T03:06:48.672Z,91.70
2023-05-10T03:09:16.665Z,91.70
2023-05-10T03:11:55.463Z,91.70
2023-05-10T03:14:31.073Z,91.70
2023-05-10T03:17:08.232Z,91.70
2023-05-10T03:19:48.567Z,91.70
2023-05-10T03:22:38.032Z,91.70
2023-05-10T03:25:09.328Z,91.70
2023-05-10T03:27:40.085Z,91.60
2023-05-10T03:30:10.025Z,91.70
2023-05-10T03:32:37.191Z,91.70
2023-05-10T03:35:10.960Z,91.70
2023-05-10T03:37:37.752Z,91.60
2023-05-10T03:40:05.425Z,91.60
2023-05-10T03:42:32.189Z,91.60
2023-05-10T03:44:58.972Z,91.60
2023-05-10T03:47:26.057Z,91.60
2023-05-10T03:49:53.183Z,91.60
2023-05-10T03:52:19.915Z,91.60
2023-05-10T03:54:46.759Z,91.60
2023-05-10T03:57:13.500Z,91.60
2023-05-10T03:59:40.209Z,91.60
2023-05-10T04:02:07.234Z,91.60
2023-05-10T04:04:34.008Z,91.60
2023-05-10T04:07:00.712Z,91.60
2023-05-10T04:09:27.586Z,91.60
2023-05-10T04:11:54.291Z,91.70
2023-05-10T04:14:20.986Z,91.70
2023-05-10T04:16:47.777Z,91.70
2023-05-10T04:19:14.507Z,91.70
2023-05-10T04:21:41.433Z,91.70
2023-05-10T04:24:08.275Z,91.70
2023-05-10T04:26:35.033Z,91.70
2023-05-10T04:29:02.006Z,91.70
2023-05-10T04:31:28.949Z,91.70
2023-05-10T04:33:55.824Z,91.70
2023-05-10T04:36:22.708Z,91.70
2023-05-10T04:38:49.485Z,91.70
2023-05-10T04:41:16.229Z,91.70
2023-05-10T04:43:42.924Z,91.70
2023-05-10T04:46:09.666Z,91.70
2023-05-10T04:48:36.467Z,91.70
2023-05-10T04:51:05.025Z,91.70
2023-05-10T04:53:32.374Z,91.70
2023-05-10T04:55:59.188Z,91.70
2023-05-10T04:58:26.143Z,91.70
2023-05-10T05:00:52.849Z,91.70
2023-05-10T05:03:19.735Z,91.70
2023-05-10T05:05:46.644Z,91.70
2023-05-10T05:08:13.984Z,91.70
2023-05-10T05:10:40.991Z,91.70
2023-05-10T05:13:07.805Z,91.70
2023-05-10T05:15:34.829Z,91.70
2023-05-10T05:18:01.623Z,91.70
2023-05-10T05:20:29.030Z,91.70
2023-05-10T05:22:55.775Z,91.70
2023-05-10T05:25:22.593Z,91.70
2023-05-10T05:27:49.366Z,91.70
2023-05-10T05:30:16.722Z,91.70
2023-05-10T05:32:43.676Z,91.70
2023-05-10T05:35:10.677Z,91.70
2023-05-10T05:37:38.158Z,91.70
2023-05-10T05:40:05.459Z,91.70
2023-05-10T05:42:32.909Z,91.70
2023-05-10T05:44:59.941Z,91.70
2023-05-10T05:47:26.787Z,91.70
2023-05-10T05:49:53.516Z,91.70
2023-05-10T05:52:20.382Z,91.70
2023-05-10T05:54:47.130Z,91.70
2023-05-10T05:57:13.893Z,91.60
2023-05-10T05:59:44.762Z,91.60
2023-05-10T06:02:11.945Z,91.70
2023-05-10T06:04:39.299Z,91.70
2023-05-10T06:07:06.232Z,91.80
2023-05-10T06:09:32.989Z,91.70
2023-05-10T06:11:59.746Z,91.60
2023-05-10T06:14:26.601Z,91.50
2023-05-10T06:16:53.413Z,91.50
2023-05-10T06:19:20.149Z,91.30
2023-05-10T06:21:46.854Z,91.30
2023-05-10T06:24:13.614Z,91.20
2023-05-10T06:26:40.515Z,91.20
2023-05-10T06:29:07.207Z,91.30
2023-05-10T06:31:34.134Z,91.30
2023-05-10T06:34:01.160Z,91.20
2023-05-10T06:36:28.181Z,91.10
2023-05-10T06:38:55.143Z,91.00
2023-05-10T06:41:24.560Z,90.70
2023-05-10T06:43:51.732Z,90.80
2023-05-10T06:46:18.647Z,90.40
2023-05-10T06:48:45.680Z,90.20
2023-05-10T06:51:12.373Z,89.70
2023-05-10T06:53:39.144Z,89.10
2023-05-10T06:56:06.328Z,88.30
2023-05-10T06:58:33.797Z,88.70
2023-05-10T07:01:05.156Z,89.30
2023-05-10T07:03:32.723Z,89.50
2023-05-10T07:06:06.068Z,88.80
2023-05-10T07:08:32.968Z,88.10
2023-05-10T07:11:08.410Z,88.40
2023-05-10T07:13:36.010Z,86.70
2023-05-10T07:16:03.888Z,85.40
2023-05-10T07:18:30.706Z,82.80
2023-05-10T07:20:58.313Z,82.70
2023-05-10T07:23:25.418Z,81.40
2023-05-10T07:25:53.188Z,84.30
2023-05-10T07:28:20.400Z,81.80
2023-05-10T07:30:47.608Z,79.50
2023-05-10T07:33:15.314Z,80.50
2023-05-10T07:35:42.292Z,83.20
2023-05-10T07:38:09.145Z,81.60
2023-05-10T07:40:35.870Z,81.90
2023-05-10T07:43:03.188Z,82.70
2023-05-10T07:45:30.102Z,83.70
2023-05-10T07:47:56.986Z,76.80
2023-05-10T07:50:23.825Z,67.60
2023-05-10T07:52:50.606Z,69.10
2023-05-10T07:55:19.859Z,56.50
2023-05-10T07:57:46.614Z,16.40
2023-05-10T08:00:20.057Z,39.80
2023-05-10T08:02:47.642Z,38.40
2023-05-10T08:05:14.697Z,63.80
2023-05-10T08:07:41.630Z,23.80
2023-05-10T08:10:09.321Z,1.00
2023-05-10T08:12:36.080Z,1.00
2023-05-10T08:15:03.076Z,6.20
2023-05-10T08:17:29.845Z,1.00
2023-05-10T08:19:56.767Z,1.00
2023-05-10T08:22:23.518Z,1.00
2023-05-10T08:24:50.361Z,1.00
2023-05-10T08:27:17.134Z,1.00
2023-05-10T08:29:50.041Z,1.00
2023-05-10T08:32:17.561Z,1.00
2023-05-10T08:34:44.426Z,1.00
2023-05-10T08:37:14.201Z,1.00
2023-05-10T08:39:41.372Z,1.00
2023-05-10T08:42:10.121Z,55.10
2023-05-10T08:44:38.115Z,55.40
2023-05-10T08:47:09.480Z,63.60
2023-05-10T08:49:38.044Z,64.80
2023-05-10T08:52:06.938Z,51.60
2023-05-10T08:54:35.257Z,31.80
2023-05-10T08:57:02.401Z,42.50
2023-05-10T08:59:29.881Z,1.00
2023-05-10T09:01:59.524Z,1.00
2023-05-10T09:04:26.852Z,1.00
2023-05-10T09:06:55.447Z,1.00
2023-05-10T09:09:22.806Z,1.00
2023-05-10T09:11:49.661Z,1.00
2023-05-10T09:14:16.933Z,71.80
2023-05-10T09:16:43.957Z,62.20
2023-05-10T09:19:11.252Z,75.50
2023-05-10T09:21:39.316Z,90.80
2023-05-10T09:24:09.963Z,53.30
2023-05-10T09:26:46.365Z,1.00
2023-05-10T09:29:15.170Z,16.50
2023-05-10T09:31:57.201Z,1.00
2023-05-10T09:34:31.532Z,6.40
2023-05-10T09:37:02.056Z,1.00
2023-05-10T09:39:36.463Z,1.00
2023-05-10T09:42:08.774Z,66.50
2023-05-10T09:44:36.169Z,44.20
2023-05-10T09:47:03.651Z,63.80
2023-05-10T09:49:30.969Z,1.00
2023-05-10T09:52:03.548Z,67.00
2023-05-10T09:54:31.027Z,81.90
2023-05-10T09:56:58.067Z,1.00
2023-05-10T09:59:28.178Z,1.00
2023-05-10T10:01:58.225Z,15.00
2023-05-10T10:04:25.301Z,1.00
2023-05-10T10:07:05.521Z,1.00
2023-05-10T10:09:33.612Z,1.00
2023-05-10T10:12:01.927Z,83.70
2023-05-10T10:14:29.852Z,1.00
2023-05-10T10:17:07.692Z,64.90
2023-05-10T10:19:36.732Z,1.00
2023-05-10T10:22:03.993Z,52.50
2023-05-10T10:24:30.877Z,68.30
2023-05-10T10:27:05.651Z,88.30
2023-05-10T10:29:50.872Z,18.10
2023-05-10T10:32:27.562Z,46.30
2023-05-10T10:34:56.134Z,3.80
2023-05-10T10:37:23.030Z,41.00
2023-05-10T10:39:51.423Z,1.00
2023-05-10T10:42:57.063Z,80.20
2023-05-10T10:45:25.266Z,56.90
2023-05-10T10:48:22.502Z,60.90
2023-05-10T10:50:56.958Z,85.80
2023-05-10T10:53:23.708Z,1.00
2023-05-10T10:55:50.483Z,92.40
2023-05-10T10:58:33.198Z,1.00
2023-05-10T11:01:19.864Z,74.60
2023-05-10T11:04:10.034Z,1.00
2023-05-10T11:06:37.502Z,1.00
2023-05-10T11:09:09.435Z,1.00
2023-05-10T11:11:37.148Z,72.20
2023-05-10T11:14:06.409Z,1.00
2023-05-10T11:16:44.114Z,80.20
2023-05-10T11:19:15.235Z,1.00
2023-05-10T11:22:06.737Z,88.00
2023-05-10T11:24:34.519Z,1.00
2023-05-10T11:27:01.978Z,3.40
2023-05-10T11:29:28.819Z,1.00
2023-05-10T11:31:59.297Z,1.00
2023-05-10T11:34:28.856Z,85.80
2023-05-10T11:36:56.656Z,73.50
2023-05-10T11:39:28.547Z,1.00
2023-05-10T11:41:55.881Z,82.40
2023-05-10T11:44:22.717Z,65.90
2023-05-10T11:46:50.560Z,1.00
2023-05-10T11:49:17.413Z,85.00
2023-05-10T11:51:44.625Z,1.00
2023-05-10T11:54:12.500Z,93.10
2023-05-10T11:56:41.166Z,1.00
2023-05-10T11:59:09.052Z,61.00
2023-05-10T12:01:36.451Z,50.70
2023-05-10T12:04:03.828Z,32.80
2023-05-10T12:06:33.353Z,80.00
2023-05-10T12:09:00.637Z,1.00
2023-05-10T12:11:29.103Z,81.20
2023-05-10T12:13:57.445Z,79.90
2023-05-10T12:16:26.618Z,67.50
2023-05-10T12:18:55.080Z,84.90
2023-05-10T12:21:22.652Z,89.50
2023-05-10T12:23:52.857Z,15.60
2023-05-10T12:26:23.162Z,69.70
2023-05-10T12:28:49.950Z,1.00
2023-05-10T12:31:16.738Z,1.00
2023-05-10T12:33:45.495Z,1.00
2023-05-10T12:36:14.766Z,1.00
2023-05-10T12:38:48.788Z,1.00
2023-05-10T12:41:19.734Z,92.50
2023-05-10T12:43:47.316Z,90.10
2023-05-10T12:46:16.416Z,83.90
2023-05-10T12:48:45.021Z,72.50
2023-05-10T12:51:18.076Z,1.00
2023-05-10T12:53:49.267Z,90.00
2023-05-10T12:56:16.374Z,24.90
2023-05-10T12:58:48.915Z,1.00
2023-05-10T13:01:16.148Z,1.00
2023-05-10T13:03:44.174Z,66.60
2023-05-10T13:06:10.928Z,62.40
2023-05-10T13:08:37.684Z,1.00
2023-05-10T13:11:04.715Z,1.00
2023-05-10T13:13:31.540Z,1.00
2023-05-10T13:15:58.354Z,1.00
2023-05-10T13:18:25.636Z,43.80
2023-05-10T13:20:52.509Z,10.30
2023-05-10T13:23:19.293Z,89.20
2023-05-10T13:25:46.239Z,1.00
2023-05-10T13:28:13.002Z,5.40
2023-05-10T13:30:39.738Z,5.20
2023-05-10T13:33:06.624Z,68.90
2023-05-10T13:35:33.404Z,77.80
2023-05-10T13:38:00.251Z,87.30
2023-05-10T13:40:26.996Z,78.80
2023-05-10T13:42:54.050Z,84.60
2023-05-10T13:45:20.901Z,73.00
2023-05-10T13:47:48.128Z,79.60
2023-05-10T13:50:14.905Z,59.90
2023-05-10T13:52:41.586Z,77.70
2023-05-10T13:55:08.714Z,1.00
2023-05-10T13:57:36.757Z,85.10
2023-05-10T14:00:04.053Z,65.60
2023-05-10T14:02:30.979Z,67.80
2023-05-10T14:04:57.951Z,70.90
2023-05-10T14:07:24.629Z,1.00
2023-05-10T14:09:51.307Z,91.70
2023-05-10T14:12:18.128Z,64.00
2023-05-10T14:14:44.834Z,92.30
2023-05-10T14:17:12.483Z,60.20
2023-05-10T14:19:40.055Z,88.60
2023-05-10T14:22:06.983Z,67.50
2023-05-10T14:24:33.711Z,91.00
2023-05-10T14:27:01.198Z,1.00
2023-05-10T14:29:28.342Z,64.10
2023-05-10T14:31:55.104Z,90.90
2023-05-10T14:34:22.148Z,1.00
2023-05-10T14:36:48.854Z,92.20
2023-05-10T14:39:15.608Z,22.30
2023-05-10T14:41:43.977Z,72.50
2023-05-10T14:44:11.595Z,1.00
2023-05-10T14:46:39.128Z,78.40
2023-05-10T14:49:05.887Z,61.50
2023-05-10T14:51:32.796Z,69.60
2023-05-10T14:53:59.836Z,1.00
2023-05-10T14:56:27.123Z,87.40
2023-05-10T14:58:53.962Z,74.20
2023-05-10T15:01:21.255Z,77.00
2023-05-10T15:03:48.656Z,1.00
2023-05-10T15:06:19.232Z,58.50
2023-05-10T15:08:46.019Z,37.20
2023-05-10T15:11:12.756Z,1.00
2023-05-10T15:13:39.527Z,68.00
2023-05-10T15:16:06.508Z,1.00
2023-05-10T15:18:33.312Z,1.00
2023-05-10T15:21:00.117Z,1.00
2023-05-10T15:23:27.608Z,19.60
2023-05-10T15:25:56.672Z,69.90
2023-05-10T15:28:23.787Z,65.10
2023-05-10T15:30:50.820Z,1.00
2023-05-10T15:33:17.593Z,1.00
2023-05-10T15:35:44.421Z,14.70
2023-05-10T15:38:11.383Z,61.10
2023-05-10T15:40:38.314Z,1.00
2023-05-10T15:43:06.287Z,1.00
2023-05-10T15:45:34.074Z,1.00
2023-05-10T15:48:02.087Z,1.00
2023-05-10T15:50:29.000Z,70.10
2023-05-10T15:52:55.741Z,1.00
2023-05-10T15:55:22.494Z,91.40
2023-05-10T15:57:49.281Z,1.00
2023-05-10T16:00:17.850Z,1.00
2023-05-10T16:02:44.662Z,1.00
2023-05-10T16:05:11.577Z,1.00
2023-05-10T16:07:38.372Z,1.00
2023-05-10T16:10:06.639Z,1.00
2023-05-10T16:12:33.593Z,1.00
2023-05-10T16:15:00.292Z,92.40
2023-05-10T16:17:27.145Z,1.00
2023-05-10T16:19:53.955Z,86.00
2023-05-10T16:22:22.339Z,1.00
2023-05-10T16:24:53.570Z,1.00
2023-05-10T16:27:20.607Z,85.80
2023-05-10T16:29:48.318Z,1.00
2023-05-10T16:32:15.082Z,62.40
2023-05-10T16:34:41.837Z,1.00
2023-05-10T16:37:08.583Z,3.90
2023-05-10T16:39:35.369Z,1.00
2023-05-10T16:42:02.060Z,1.00
2023-05-10T16:44:28.977Z,1.00
2023-05-10T16:46:56.100Z,1.00
2023-05-10T16:49:25.254Z,81.50
2023-05-10T16:51:52.834Z,1.00
2023-05-10T16:54:20.748Z,1.00
2023-05-10T16:56:47.629Z,1.00
2023-05-10T16:59:14.332Z,1.00
2023-05-10T17:01:41.187Z,31.30
2023-05-10T17:04:08.364Z,61.00
2023-05-10T17:06:36.885Z,69.60
2023-05-10T17:09:04.102Z,67.30
2023-05-10T17:11:31.218Z,69.50
2023-05-10T17:13:59.651Z,75.70
2023-05-10T17:16:26.921Z,1.00
2023-05-10T17:18:53.831Z,80.00
2023-05-10T17:21:21.156Z,84.00
2023-05-10T17:23:47.985Z,92.70
2023-05-10T17:26:14.743Z,1.00
2023-05-10T17:28:41.496Z,90.10
2023-05-10T17:31:08.713Z,90.10
2023-05-10T17:33:35.439Z,91.60
2023-05-10T17:36:02.194Z,1.00
2023-05-10T17:38:28.910Z,1.00
2023-05-10T17:40:55.583Z,1.00
2023-05-10T17:43:23.482Z,1.00
2023-05-10T17:45:50.329Z,1.00
2023-05-10T17:48:17.360Z,1.00
2023-05-10T17:50:44.481Z,1.00
2023-05-10T17:53:11.317Z,1.00
2023-05-10T17:55:42.117Z,1.00
2023-05-10T17:58:11.351Z,1.00
2023-05-10T18:00:38.708Z,1.00
2023-05-10T18:03:05.844Z,1.00
2023-05-10T18:05:39.355Z,1.00
2023-05-10T18:08:07.208Z,1.00
2023-05-10T18:10:34.141Z,1.00
2023-05-10T18:13:02.483Z,1.00
2023-05-10T18:15:29.344Z,1.00
2023-05-10T18:17:56.743Z,1.00
2023-05-10T18:20:23.944Z,21.20
2023-05-10T18:22:50.801Z,48.80
2023-05-10T18:25:17.995Z,60.30
2023-05-10T18:27:44.973Z,63.80
2023-05-10T18:30:12.565Z,65.80
2023-05-10T18:32:39.798Z,67.00
2023-05-10T18:35:07.823Z,67.10
2023-05-10T18:37:35.098Z,66.50
2023-05-10T18:40:01.972Z,66.20
2023-05-10T18:42:28.875Z,68.80
2023-05-10T18:44:55.882Z,71.00
2023-05-10T18:47:22.723Z,71.90
2023-05-10T18:49:49.548Z,72.00
2023-05-10T18:52:16.381Z,72.30
2023-05-10T18:54:43.162Z,72.70
2023-05-10T18:57:09.921Z,73.50
2023-05-10T18:59:36.760Z,74.40
2023-05-10T19:02:03.652Z,75.80
2023-05-10T19:04:30.539Z,76.70
2023-05-10T19:06:57.436Z,77.20
2023-05-10T19:09:24.501Z,77.80
2023-05-10T19:11:51.863Z,78.40
2023-05-10T19:14:18.572Z,78.80
2023-05-10T19:16:45.514Z,78.90
2023-05-10T19:19:14.442Z,79.90
2023-05-10T19:21:41.262Z,80.40
2023-05-10T19:24:08.093Z,80.70
2023-05-10T19:26:35.335Z,80.80
2023-05-10T19:29:02.079Z,80.70
2023-05-10T19:31:28.852Z,81.50
2023-05-10T19:33:56.305Z,82.30
2023-05-10T19:36:24.288Z,83.20
2023-05-10T19:38:51.620Z,83.80
2023-05-10T19:41:18.629Z,84.30
2023-05-10T19:43:45.518Z,84.80
2023-05-10T19:46:13.375Z,85.10
2023-05-10T19:48:40.265Z,85.60
2023-05-10T19:51:10.007Z,86.00
2023-05-10T19:53:37.055Z,86.30
2023-05-10T19:56:06.356Z,86.60
2023-05-10T19:58:33.877Z,86.60
2023-05-10T20:01:00.976Z,86.90
2023-05-10T20:03:28.521Z,87.10
2023-05-10T20:05:55.366Z,87.30
2023-05-10T20:08:22.148Z,87.40
2023-05-10T20:10:48.901Z,87.70
2023-05-10T20:13:15.641Z,88.00
2023-05-10T20:15:42.440Z,88.20
2023-05-10T20:18:09.320Z,88.50
2023-05-10T20:20:36.118Z,88.70
2023-05-10T20:23:02.880Z,88.60
2023-05-10T20:25:29.799Z,89.00
2023-05-10T20:27:56.580Z,89.20
2023-05-10T20:30:23.325Z,89.60
2023-05-10T20:32:50.054Z,89.80
2023-05-10T20:35:17.017Z,89.80
2023-05-10T20:37:43.734Z,90.00
2023-05-10T20:40:10.983Z,90.00
2023-05-10T20:42:37.836Z,90.10
2023-05-10T20:45:04.978Z,90.10
2023-05-10T20:47:32.450Z,90.20
2023-05-10T20:49:59.215Z,90.30
2023-05-10T20:52:26.200Z,90.40
2023-05-10T20:54:52.936Z,90.50
2023-05-10T20:57:20.159Z,90.50
2023-05-10T20:59:46.950Z,90.50
2023-05-10T21:02:13.681Z,90.60
2023-05-10T21:04:40.903Z,90.60
2023-05-10T21:07:07.747Z,90.60
2023-05-10T21:09:35.476Z,90.60
2023-05-10T21:12:03.414Z,90.70
2023-05-10T21:14:30.977Z,90.70
2023-05-10T21:16:57.743Z,90.70
2023-05-10T21:19:24.460Z,90.70
2023-05-10T21:21:51.267Z,90.80
2023-05-10T21:24:18.070Z,90.80
2023-05-10T21:26:45.292Z,90.90
2023-05-10T21:29:12.052Z,90.90
2023-05-10T21:31:38.769Z,91.00
2023-05-10T21:34:05.636Z,91.00
2023-05-10T21:36:32.435Z,91.00
2023-05-10T21:38:59.172Z,91.10
2023-05-10T21:41:26.607Z,91.10
2023-05-10T21:43:53.308Z,91.10
2023-05-10T21:46:20.278Z,91.10
2023-05-10T21:48:47.088Z,91.10
2023-05-10T21:51:14.130Z,91.10
2023-05-10T21:53:40.923Z,91.10
2023-05-10T21:56:07.731Z,91.20
2023-05-10T21:58:34.543Z,91.10
2023-05-10T22:01:01.408Z,91.10
2023-05-10T22:03:28.296Z,91.10
2023-05-10T22:05:55.230Z,91.10
2023-05-10T22:08:22.048Z,91.10
2023-05-10T22:10:48.760Z,91.10
2023-05-10T22:13:15.514Z,91.10
2023-05-10T22:15:43.330Z,91.10
2023-05-10T22:18:10.330Z,91.10
2023-05-10T22:20:37.099Z,91.10
2023-05-10T22:23:03.841Z,91.10
2023-05-10T22:25:30.787Z,91.10
2023-05-10T22:27:57.578Z,91.10
2023-05-10T22:30:24.320Z,91.10
2023-05-10T22:32:51.146Z,91.10
2023-05-10T22:35:18.139Z,91.00
2023-05-10T22:37:44.832Z,91.10
2023-05-10T22:40:12.127Z,91.00
2023-05-10T22:42:38.869Z,91.00
2023-05-10T22:45:06.157Z,91.00
2023-05-10T22:47:33.603Z,91.10
2023-05-10T22:50:03.242Z,91.00
2023-05-10T22:52:30.160Z,91.00
2023-05-10T22:54:57.244Z,91.00
2023-05-10T22:57:24.517Z,91.10
2023-05-10T22:59:52.045Z,91.10
2023-05-10T23:02:19.063Z,91.10
2023-05-10T23:04:46.375Z,91.10
2023-05-10T23:07:13.104Z,91.10
2023-05-10T23:09:39.911Z,91.00
2023-05-10T23:12:06.724Z,91.00
2023-05-10T23:14:33.543Z,91.00
2023-05-10T23:17:00.542Z,91.10
2023-05-10T23:19:27.321Z,91.00
2023-05-10T23:21:54.081Z,91.00
2023-05-10T23:24:20.837Z,91.00
2023-05-10T23:26:47.578Z,91.10
2023-05-10T23:29:14.435Z,91.10
2023-05-10T23:31:45.445Z,91.10
2023-05-10T23:34:12.622Z,91.10
2023-05-10T23:36:39.429Z,91.10
2023-05-10T23:39:06.712Z,91.10
2023-05-10T23:41:33.737Z,91.10
2023-05-10T23:44:02.290Z,91.10
2023-05-10T23:46:29.197Z,91.10
2023-05-10T23:48:56.066Z,91.10
2023-05-10T23:51:22.963Z,91.20
2023-05-10T23:53:49.856Z,91.20
2023-05-10T23:56:16.541Z,91.20
2023-05-10T23:58:44.130Z,91.10
